sensor_id;sensor_type;location;lat;lon;timestamp;P1;durP1;ratioP1;P2;durP2;ratioP2
30763;SDS011;17497;51.476;7.770;2023-05-10T00:01:06;0.50;;;0.50;;
30763;SDS011;17497;51.476;7.770;2023-05-10T00:03:33;0.40;;;0.40;;
30763;SDS011;17497;51.476;7.770;2023-05-10T00:06:00;0.40;;;0.40;;
30763;SDS011;17497;51.476;7.770;2023-05-10T00:08:27;0.40;;;0.40;;
30763;SDS011;17497;51.476;7.770;2023-05-10T00:10:54;0.30;;;0.30;;
30763;SDS011;17497;51.476;7.770;2023-05-10T00:13:21;0.40;;;0.40;;
30763;SDS011;17497;51.476;7.770;2023-05-10T00:15:48;0.40;;;0.40;;
30763;SDS011;17497;51.476;7.770;2023-05-10T00:18:15;0.40;;;0.40;;
30763;SDS011;17497;51.476;7.770;2023-05-10T00:20:42;0.40;;;0.40;;
30763;SDS011;17497;51.476;7.770;2023-05-10T00:23:08;0.40;;;0.40;;
30763;SDS011;17497;51.476;7.770;2023-05-10T00:25:35;0.40;;;0.40;;
30763;SDS011;17497;51.476;7.770;2023-05-10T00:28:02;0.40;;;0.40;;
30763;SDS011;17497;51.476;7.770;2023-05-10T00:30:29;0.40;;;0.40;;
30763;SDS011;17497;51.476;7.770;2023-05-10T00:32:55;0.40;;;0.40;;
30763;SDS011;17497;51.476;7.770;2023-05-10T00:35:22;0.40;;;0.40;;
30763;SDS011;17497;51.476;7.770;2023-05-10T00:37:49;0.40;;;0.40;;
30763;SDS011;17497;51.476;7.770;2023-05-10T00:40:16;0.40;;;0.40;;
30763;SDS011;17497;51.476;7.770;2023-05-10T00:42:43;0.40;;;0.40;;
30763;SDS011;17497;51.476;7.770;2023-05-10T00:45:10;0.40;;;0.40;;
30763;SDS011;17497;51.476;7.770;2023-05-10T00:47:37;0.40;;;0.40;;
30763;SDS011;17497;51.476;7.770;2023-05-10T00:50:04;0.40;;;0.40;;
30763;SDS011;17497;51.476;7.770;2023-05-10T00:52:32;0.40;;;0.40;;
30763;SDS011;17497;51.476;7.770;2023-05-10T00:54:59;0.40;;;0.40;;
30763;SDS011;17497;51.476;7.770;2023-05-10T00:57:26;0.40;;;0.40;;
30763;SDS011;17497;51.476;7.770;2023-05-10T00:59:53;0.40;;;0.40;;
30763;SDS011;17497;51.476;7.770;2023-05-10T01:02:20;0.38;;;0.38;;
30763;SDS011;17497;51.476;7.770;2023-05-10T01:04:47;0.40;;;0.40;;
30763;SDS011;17497;51.476;7.770;2023-05-10T01:07:14;0.40;;;0.40;;
30763;SDS011;17497;51.476;7.770;2023-05-10T01:09:41;0.40;;;0.40;;
30763;SDS011;17497;51.476;7.770;2023-05-10T01:12:08;0.40;;;0.40;;
30763;SDS011;17497;51.476;7.770;2023-05-10T01:14:35;0.40;;;0.40;;
30763;SDS011;17497;51.476;7.770;2023-05-10T01:17:02;0.43;;;0.43;;
30763;SDS011;17497;51.476;7.770;2023-05-10T01:19:31;0.40;;;0.40;;
30763;SDS011;17497;51.476;7.770;2023-05-10T01:35:31;0.40;;;0.40;;
30763;SDS011;17497;51.476;7.770;2023-05-10T01:38:17;0.40;;;0.40;;
30763;SDS011;17497;51.476;7.770;2023-05-10T01:40:55;0.40;;;0.40;;
30763;SDS011;17497;51.476;7.770;2023-05-10T01:46:37;0.40;;;0.40;;
30763;SDS011;17497;51.476;7.770;2023-05-10T01:49:15;0.40;;;0.40;;
30763;SDS011;17497;51.476;7.770;2023-05-10T01:51:53;0.40;;;0.40;;
30763;SDS011;17497;51.476;7.770;2023-05-10T01:54:24;0.40;;;0.40;;
30763;SDS011;17497;51.476;7.770;2023-05-10T01:56:59;0.40;;;0.40;;
30763;SDS011;17497;51.476;7.770;2023-05-10T01:59:30;0.40;;;0.40;;
30763;SDS011;17497;51.476;7.770;2023-05-10T02:02:07;0.40;;;0.40;;
30763;SDS011;17497;51.476;7.770;2023-05-10T02:04:38;0.40;;;0.40;;
30763;SDS011;17497;51.476;7.770;2023-05-10T02:07:06;0.38;;;0.38;;
30763;SDS011;17497;51.476;7.770;2023-05-10T02:09:35;0.40;;;0.40;;
30763;SDS011;17497;51.476;7.770;2023-05-10T02:12:03;0.40;;;0.40;;
30763;SDS011;17497;51.476;7.770;2023-05-10T02:14:33;0.30;;;0.30;;
30763;SDS011;17497;51.476;7.770;2023-05-10T02:17:02;0.40;;;0.40;;
30763;SDS011;17497;51.476;7.770;2023-05-10T02:19:32;0.40;;;0.40;;
30763;SDS011;17497;51.476;7.770;2023-05-10T02:21:59;0.38;;;0.38;;
30763;SDS011;17497;51.476;7.770;2023-05-10T02:24:28;0.30;;;0.30;;
30763;SDS011;17497;51.476;7.770;2023-05-10T02:26:55;0.30;;;0.30;;
30763;SDS011;17497;51.476;7.770;2023-05-10T02:29:23;0.40;;;0.40;;
30763;SDS011;17497;51.476;7.770;2023-05-10T02:31:53;0.30;;;0.30;;
30763;SDS011;17497;51.476;7.770;2023-05-10T02:34:21;0.40;;;0.40;;
30763;SDS011;17497;51.476;7.770;2023-05-10T02:36:51;0.40;;;0.40;;
30763;SDS011;17497;51.476;7.770;2023-05-10T02:39:20;0.40;;;0.40;;
30763;SDS011;17497;51.476;7.770;2023-05-10T02:41:50;0.30;;;0.30;;
30763;SDS011;17497;51.476;7.770;2023-05-10T02:44:19;0.40;;;0.40;;
30763;SDS011;17497;51.476;7.770;2023-05-10T02:46:48;0.35;;;0.35;;
30763;SDS011;17497;51.476;7.770;2023-05-10T02:49:15;0.30;;;0.30;;
30763;SDS011;17497;51.476;7.770;2023-05-10T02:51:44;0.40;;;0.40;;
30763;SDS011;17497;51.476;7.770;2023-05-10T02:54:19;0.40;;;0.40;;
30763;SDS011;17497;51.476;7.770;2023-05-10T02:56:59;0.40;;;0.40;;
30763;SDS011;17497;51.476;7.770;2023-05-10T02:59:29;0.43;;;0.43;;
30763;SDS011;17497;51.476;7.770;2023-05-10T03:01:55;0.40;;;0.40;;
30763;SDS011;17497;51.476;7.770;2023-05-10T03:04:22;0.30;;;0.30;;
30763;SDS011;17497;51.476;7.770;2023-05-10T03:06:49;0.40;;;0.40;;
30763;SDS011;17497;51.476;7.770;2023-05-10T03:09:17;0.50;;;0.50;;
30763;SDS011;17497;51.476;7.770;2023-05-10T03:11:49;0.38;;;0.38;;
30763;SDS011;17497;51.476;7.770;2023-05-10T03:17:15;0.40;;;0.40;;
30763;SDS011;17497;51.476;7.770;2023-05-10T03:19:57;0.30;;;0.30;;
30763;SDS011;17497;51.476;7.770;2023-05-10T03:22:34;0.40;;;0.40;;
30763;SDS011;17497;51.476;7.770;2023-05-10T03:25:05;0.30;;;0.30;;
30763;SDS011;17497;51.476;7.770;2023-05-10T03:27:35;0.40;;;0.40;;
30763;SDS011;17497;51.476;7.770;2023-05-10T03:30:05;0.40;;;0.40;;
30763;SDS011;17497;51.476;7.770;2023-05-10T03:32:34;0.40;;;0.40;;
30763;SDS011;17497;51.476;7.770;2023-05-10T05:04:05;0.40;;;0.40;;
30763;SDS011;17497;51.476;7.770;2023-05-10T05:06:33;0.40;;;0.40;;
30763;SDS011;17497;51.476;7.770;2023-05-10T05:08:59;0.30;;;0.30;;
30763;SDS011;17497;51.476;7.770;2023-05-10T05:11:26;0.40;;;0.40;;
30763;SDS011;17497;51.476;7.770;2023-05-10T05:13:53;0.40;;;0.40;;
30763;SDS011;17497;51.476;7.770;2023-05-10T05:16:20;0.40;;;0.40;;
30763;SDS011;17497;51.476;7.770;2023-05-10T05:18:47;0.40;;;0.40;;
30763;SDS011;17497;51.476;7.770;2023-05-10T05:21:14;0.38;;;0.38;;
30763;SDS011;17497;51.476;7.770;2023-05-10T05:23:42;0.40;;;0.40;;
30763;SDS011;17497;51.476;7.770;2023-05-10T05:26:10;0.40;;;0.40;;
30763;SDS011;17497;51.476;7.770;2023-05-10T05:28:37;0.40;;;0.40;;
30763;SDS011;17497;51.476;7.770;2023-05-10T05:31:04;0.40;;;0.40;;
30763;SDS011;17497;51.476;7.770;2023-05-10T05:33:31;0.40;;;0.40;;
30763;SDS011;17497;51.476;7.770;2023-05-10T05:36:05;0.30;;;0.30;;
30763;SDS011;17497;51.476;7.770;2023-05-10T05:38:32;0.30;;;0.30;;
30763;SDS011;17497;51.476;7.770;2023-05-10T05:40:59;0.40;;;0.40;;
30763;SDS011;17497;51.476;7.770;2023-05-10T05:43:26;0.30;;;0.30;;
30763;SDS011;17497;51.476;7.770;2023-05-10T05:45:55;0.40;;;0.40;;
30763;SDS011;17497;51.476;7.770;2023-05-10T05:48:24;0.40;;;0.40;;
30763;SDS011;17497;51.476;7.770;2023-05-10T05:50:54;0.40;;;0.40;;
30763;SDS011;17497;51.476;7.770;2023-05-10T05:53:22;0.40;;;0.40;;
30763;SDS011;17497;51.476;7.770;2023-05-10T05:55:53;0.30;;;0.30;;
30763;SDS011;17497;51.476;7.770;2023-05-10T05:58:23;0.40;;;0.40;;
30763;SDS011;17497;51.476;7.770;2023-05-10T06:00:50;0.40;;;0.40;;
30763;SDS011;17497;51.476;7.770;2023-05-10T06:03:20;0.40;;;0.40;;
30763;SDS011;17497;51.476;7.770;2023-05-10T06:05:47;0.40;;;0.40;;
30763;SDS011;17497;51.476;7.770;2023-05-10T06:08:14;0.40;;;0.40;;
30763;SDS011;17497;51.476;7.770;2023-05-10T06:10:41;0.40;;;0.40;;
30763;SDS011;17497;51.476;7.770;2023-05-10T06:13:07;0.40;;;0.40;;
30763;SDS011;17497;51.476;7.770;2023-05-10T06:15:34;0.40;;;0.40;;
30763;SDS011;17497;51.476;7.770;2023-05-10T06:18:01;0.38;;;0.38;;
30763;SDS011;17497;51.476;7.770;2023-05-10T06:20:28;0.30;;;0.30;;
30763;SDS011;17497;51.476;7.770;2023-05-10T06:22:57;0.30;;;0.30;;
30763;SDS011;17497;51.476;7.770;2023-05-10T06:25:24;0.40;;;0.40;;
30763;SDS011;17497;51.476;7.770;2023-05-10T06:27:51;0.40;;;0.40;;
30763;SDS011;17497;51.476;7.770;2023-05-10T06:30:23;0.40;;;0.40;;
30763;SDS011;17497;51.476;7.770;2023-05-10T06:32:53;0.30;;;0.30;;
30763;SDS011;17497;51.476;7.770;2023-05-10T06:35:21;0.35;;;0.35;;
30763;SDS011;17497;51.476;7.770;2023-05-10T06:37:48;0.40;;;0.40;;
30763;SDS011;17497;51.476;7.770;2023-05-10T06:40:15;0.30;;;0.30;;
30763;SDS011;17497;51.476;7.770;2023-05-10T06:42:42;0.33;;;0.33;;
30763;SDS011;17497;51.476;7.770;2023-05-10T06:45:11;0.40;;;0.40;;
30763;SDS011;17497;51.476;7.770;2023-05-10T06:47:38;0.40;;;0.40;;
30763;SDS011;17497;51.476;7.770;2023-05-10T06:50:05;0.40;;;0.40;;
30763;SDS011;17497;51.476;7.770;2023-05-10T06:52:33;0.40;;;0.40;;
30763;SDS011;17497;51.476;7.770;2023-05-10T06:55:00;0.40;;;0.40;;
30763;SDS011;17497;51.476;7.770;2023-05-10T06:57:27;0.40;;;0.40;;
30763;SDS011;17497;51.476;7.770;2023-05-10T07:00:00;0.30;;;0.30;;
30763;SDS011;17497;51.476;7.770;2023-05-10T07:02:27;0.30;;;0.30;;
30763;SDS011;17497;51.476;7.770;2023-05-10T07:04:54;0.40;;;0.40;;
30763;SDS011;17497;51.476;7.770;2023-05-10T07:07:21;0.40;;;0.40;;
30763;SDS011;17497;51.476;7.770;2023-05-10T07:09:48;0.38;;;0.38;;
30763;SDS011;17497;51.476;7.770;2023-05-10T07:12:16;0.30;;;0.30;;
30763;SDS011;17497;51.476;7.770;2023-05-10T07:14:42;0.30;;;0.30;;
30763;SDS011;17497;51.476;7.770;2023-05-10T07:17:09;0.30;;;0.30;;
30763;SDS011;17497;51.476;7.770;2023-05-10T07:19:36;0.40;;;0.40;;
30763;SDS011;17497;51.476;7.770;2023-05-10T07:22:03;0.30;;;0.30;;
30763;SDS011;17497;51.476;7.770;2023-05-10T07:24:30;0.30;;;0.30;;
30763;SDS011;17497;51.476;7.770;2023-05-10T07:29:25;0.30;;;0.30;;
30763;SDS011;17497;51.476;7.770;2023-05-10T07:31:51;0.30;;;0.30;;
30763;SDS011;17497;51.476;7.770;2023-05-10T07:34:21;0.40;;;0.40;;
30763;SDS011;17497;51.476;7.770;2023-05-10T07:36:48;0.30;;;0.30;;
30763;SDS011;17497;51.476;7.770;2023-05-10T07:39:15;0.30;;;0.30;;
30763;SDS011;17497;51.476;7.770;2023-05-10T07:41:52;0.40;;;0.40;;
30763;SDS011;17497;51.476;7.770;2023-05-10T07:44:23;0.35;;;0.35;;
30763;SDS011;17497;51.476;7.770;2023-05-10T07:46:50;0.30;;;0.30;;
30763;SDS011;17497;51.476;7.770;2023-05-10T07:49:16;0.30;;;0.30;;
30763;SDS011;17497;51.476;7.770;2023-05-10T07:51:43;0.30;;;0.30;;
30763;SDS011;17497;51.476;7.770;2023-05-10T07:54:10;0.35;;;0.35;;
30763;SDS011;17497;51.476;7.770;2023-05-10T07:56:37;0.30;;;0.30;;
30763;SDS011;17497;51.476;7.770;2023-05-10T07:59:04;0.30;;;0.30;;
30763;SDS011;17497;51.476;7.770;2023-05-10T08:01:32;0.30;;;0.30;;
30763;SDS011;17497;51.476;7.770;2023-05-10T08:04:00;0.30;;;0.30;;
30763;SDS011;17497;51.476;7.770;2023-05-10T08:06:28;0.30;;;0.30;;
30763;SDS011;17497;51.476;7.770;2023-05-10T08:08:56;0.30;;;0.30;;
30763;SDS011;17497;51.476;7.770;2023-05-10T08:11:23;0.30;;;0.30;;
30763;SDS011;17497;51.476;7.770;2023-05-10T08:13:50;0.30;;;0.30;;
30763;SDS011;17497;51.476;7.770;2023-05-10T08:16:17;0.30;;;0.30;;
30763;SDS011;17497;51.476;7.770;2023-05-10T08:18:44;0.30;;;0.30;;
30763;SDS011;17497;51.476;7.770;2023-05-10T08:21:13;0.30;;;0.30;;
30763;SDS011;17497;51.476;7.770;2023-05-10T08:23:41;0.30;;;0.30;;
30763;SDS011;17497;51.476;7.770;2023-05-10T08:26:10;0.30;;;0.30;;
30763;SDS011;17497;51.476;7.770;2023-05-10T08:28:37;0.30;;;0.30;;
30763;SDS011;17497;51.476;7.770;2023-05-10T08:31:04;0.30;;;0.30;;
30763;SDS011;17497;51.476;7.770;2023-05-10T08:33:31;0.30;;;0.30;;
30763;SDS011;17497;51.476;7.770;2023-05-10T08:35:58;0.30;;;0.30;;
30763;SDS011;17497;51.476;7.770;2023-05-10T08:38:25;0.30;;;0.30;;
30763;SDS011;17497;51.476;7.770;2023-05-10T08:40:52;0.30;;;0.30;;
30763;SDS011;17497;51.476;7.770;2023-05-10T08:43:23;0.30;;;0.30;;
30763;SDS011;17497;51.476;7.770;2023-05-10T08:45:55;0.30;;;0.30;;
30763;SDS011;17497;51.476;7.770;2023-05-10T08:50:52;0.30;;;0.30;;
30763;SDS011;17497;51.476;7.770;2023-05-10T08:53:21;0.30;;;0.30;;
30763;SDS011;17497;51.476;7.770;2023-05-10T08:55:51;0.30;;;0.30;;
30763;SDS011;17497;51.476;7.770;2023-05-10T08:58:19;0.30;;;0.30;;
30763;SDS011;17497;51.476;7.770;2023-05-10T09:00:46;0.30;;;0.30;;
30763;SDS011;17497;51.476;7.770;2023-05-10T09:03:15;0.30;;;0.30;;
30763;SDS011;17497;51.476;7.770;2023-05-10T09:05:42;0.30;;;0.30;;
30763;SDS011;17497;51.476;7.770;2023-05-10T09:08:10;0.30;;;0.30;;
30763;SDS011;17497;51.476;7.770;2023-05-10T09:10:39;0.30;;;0.30;;
30763;SDS011;17497;51.476;7.770;2023-05-10T09:13:06;0.30;;;0.30;;
30763;SDS011;17497;51.476;7.770;2023-05-10T09:15:35;0.30;;;0.30;;
30763;SDS011;17497;51.476;7.770;2023-05-10T09:18:02;0.30;;;0.30;;
30763;SDS011;17497;51.476;7.770;2023-05-10T09:20:29;0.30;;;0.30;;
30763;SDS011;17497;51.476;7.770;2023-05-10T09:22:57;0.30;;;0.30;;
30763;SDS011;17497;51.476;7.770;2023-05-10T09:25:23;0.30;;;0.30;;
30763;SDS011;17497;51.476;7.770;2023-05-10T09:27:50;0.30;;;0.30;;
30763;SDS011;17497;51.476;7.770;2023-05-10T09:32:55;0.30;;;0.30;;
30763;SDS011;17497;51.476;7.770;2023-05-10T09:35:24;0.30;;;0.30;;
30763;SDS011;17497;51.476;7.770;2023-05-10T09:37:55;0.30;;;0.30;;
30763;SDS011;17497;51.476;7.770;2023-05-10T09:40:27;0.30;;;0.30;;
30763;SDS011;17497;51.476;7.770;2023-05-10T09:47:50;0.22;;;0.22;;
30763;SDS011;17497;51.476;7.770;2023-05-10T09:50:18;0.30;;;0.30;;
30763;SDS011;17497;51.476;7.770;2023-05-10T09:55:18;0.30;;;0.30;;
30763;SDS011;17497;51.476;7.770;2023-05-10T09:57:47;0.30;;;0.30;;
30763;SDS011;17497;51.476;7.770;2023-05-10T10:02:53;0.30;;;0.30;;
30763;SDS011;17497;51.476;7.770;2023-05-10T10:05:27;0.30;;;0.30;;
30763;SDS011;17497;51.476;7.770;2023-05-10T10:07:55;0.30;;;0.30;;
30763;SDS011;17497;51.476;7.770;2023-05-10T10:10:26;0.30;;;0.30;;
30763;SDS011;17497;51.476;7.770;2023-05-10T10:12:54;0.30;;;0.30;;
30763;SDS011;17497;51.476;7.770;2023-05-10T10:15:21;0.30;;;0.30;;
30763;SDS011;17497;51.476;7.770;2023-05-10T10:17:49;0.30;;;0.30;;
30763;SDS011;17497;51.476;7.770;2023-05-10T10:20:16;0.30;;;0.30;;
30763;SDS011;17497;51.476;7.770;2023-05-10T10:22:45;0.30;;;0.30;;
30763;SDS011;17497;51.476;7.770;2023-05-10T10:25:14;0.30;;;0.30;;
30763;SDS011;17497;51.476;7.770;2023-05-10T10:27:49;0.30;;;0.30;;
30763;SDS011;17497;51.476;7.770;2023-05-10T10:35:54;0.30;;;0.30;;
30763;SDS011;17497;51.476;7.770;2023-05-10T10:38:24;0.30;;;0.30;;
30763;SDS011;17497;51.476;7.770;2023-05-10T10:41:08;0.30;;;0.30;;
30763;SDS011;17497;51.476;7.770;2023-05-10T10:43:37;0.28;;;0.28;;
30763;SDS011;17497;51.476;7.770;2023-05-10T10:46:11;0.30;;;0.30;;
30763;SDS011;17497;51.476;7.770;2023-05-10T10:48:41;0.30;;;0.30;;
30763;SDS011;17497;51.476;7.770;2023-05-10T10:51:14;0.30;;;0.30;;
30763;SDS011;17497;51.476;7.770;2023-05-10T10:53:41;0.30;;;0.30;;
30763;SDS011;17497;51.476;7.770;2023-05-10T10:56:12;0.30;;;0.30;;
30763;SDS011;17497;51.476;7.770;2023-05-10T10:58:42;0.20;;;0.20;;
30763;SDS011;17497;51.476;7.770;2023-05-10T11:01:18;0.20;;;0.20;;
30763;SDS011;17497;51.476;7.770;2023-05-10T11:06:30;0.20;;;0.20;;
30763;SDS011;17497;51.476;7.770;2023-05-10T11:08:58;0.20;;;0.20;;
30763;SDS011;17497;51.476;7.770;2023-05-10T11:11:36;0.20;;;0.20;;
30763;SDS011;17497;51.476;7.770;2023-05-10T11:14:15;0.20;;;0.20;;
30763;SDS011;17497;51.476;7.770;2023-05-10T11:16:46;0.30;;;0.30;;
30763;SDS011;17497;51.476;7.770;2023-05-10T11:19:14;0.30;;;0.30;;
30763;SDS011;17497;51.476;7.770;2023-05-10T11:24:13;0.20;;;0.20;;
30763;SDS011;17497;51.476;7.770;2023-05-10T11:26:42;0.20;;;0.20;;
30763;SDS011;17497;51.476;7.770;2023-05-10T11:29:09;0.20;;;0.20;;
30763;SDS011;17497;51.476;7.770;2023-05-10T11:31:41;0.20;;;0.20;;
30763;SDS011;17497;51.476;7.770;2023-05-10T11:34:10;0.30;;;0.30;;
30763;SDS011;17497;51.476;7.770;2023-05-10T11:36:37;0.22;;;0.22;;
30763;SDS011;17497;51.476;7.770;2023-05-10T11:39:04;0.20;;;0.20;;
30763;SDS011;17497;51.476;7.770;2023-05-10T11:41:32;0.30;;;0.30;;
30763;SDS011;17497;51.476;7.770;2023-05-10T11:43:58;0.30;;;0.30;;
30763;SDS011;17497;51.476;7.770;2023-05-10T11:46:26;0.30;;;0.30;;
30763;SDS011;17497;51.476;7.770;2023-05-10T11:48:57;0.30;;;0.30;;
30763;SDS011;17497;51.476;7.770;2023-05-10T11:51:32;0.30;;;0.30;;
30763;SDS011;17497;51.476;7.770;2023-05-10T11:54:02;0.28;;;0.28;;
30763;SDS011;17497;51.476;7.770;2023-05-10T11:56:39;0.28;;;0.28;;
30763;SDS011;17497;51.476;7.770;2023-05-10T11:59:06;0.30;;;0.30;;
30763;SDS011;17497;51.476;7.770;2023-05-10T12:04:01;0.30;;;0.30;;
30763;SDS011;17497;51.476;7.770;2023-05-10T12:06:29;0.30;;;0.30;;
30763;SDS011;17497;51.476;7.770;2023-05-10T12:08:58;0.30;;;0.30;;
30763;SDS011;17497;51.476;7.770;2023-05-10T12:11:25;0.32;;;0.32;;
30763;SDS011;17497;51.476;7.770;2023-05-10T12:13:53;0.30;;;0.30;;
30763;SDS011;17497;51.476;7.770;2023-05-10T12:18:52;0.35;;;0.35;;
30763;SDS011;17497;51.476;7.770;2023-05-10T12:21:20;0.30;;;0.30;;
30763;SDS011;17497;51.476;7.770;2023-05-10T12:23:51;0.40;;;0.40;;
30763;SDS011;17497;51.476;7.770;2023-05-10T12:26:22;0.30;;;0.30;;
30763;SDS011;17497;51.476;7.770;2023-05-10T12:28:50;0.40;;;0.40;;
30763;SDS011;17497;51.476;7.770;2023-05-10T12:31:17;0.30;;;0.30;;
30763;SDS011;17497;51.476;7.770;2023-05-10T12:33:44;0.30;;;0.30;;
30763;SDS011;17497;51.476;7.770;2023-05-10T12:36:13;0.30;;;0.30;;
30763;SDS011;17497;51.476;7.770;2023-05-10T12:38:41;0.30;;;0.30;;
30763;SDS011;17497;51.476;7.770;2023-05-10T12:41:10;0.30;;;0.30;;
30763;SDS011;17497;51.476;7.770;2023-05-10T12:43:41;0.30;;;0.30;;
30763;SDS011;17497;51.476;7.770;2023-05-10T12:46:12;0.20;;;0.20;;
30763;SDS011;17497;51.476;7.770;2023-05-10T12:48:41;0.30;;;0.30;;
30763;SDS011;17497;51.476;7.770;2023-05-10T12:51:08;0.30;;;0.30;;
30763;SDS011;17497;51.476;7.770;2023-05-10T12:53:38;0.30;;;0.30;;
30763;SDS011;17497;51.476;7.770;2023-05-10T12:56:09;0.30;;;0.30;;
30763;SDS011;17497;51.476;7.770;2023-05-10T12:58:36;0.30;;;0.30;;
30763;SDS011;17497;51.476;7.770;2023-05-10T13:01:02;0.25;;;0.25;;
30763;SDS011;17497;51.476;7.770;2023-05-10T13:03:31;0.30;;;0.30;;
30763;SDS011;17497;51.476;7.770;2023-05-10T13:05:58;0.30;;;0.30;;
30763;SDS011;17497;51.476;7.770;2023-05-10T13:08:25;0.30;;;0.30;;
30763;SDS011;17497;51.476;7.770;2023-05-10T13:10:52;0.30;;;0.30;;
30763;SDS011;17497;51.476;7.770;2023-05-10T13:13:19;0.30;;;0.30;;
30763;SDS011;17497;51.476;7.770;2023-05-10T13:15:46;0.30;;;0.30;;
30763;SDS011;17497;51.476;7.770;2023-05-10T13:18:16;0.30;;;0.30;;
30763;SDS011;17497;51.476;7.770;2023-05-10T13:20:42;0.30;;;0.30;;
30763;SDS011;17497;51.476;7.770;2023-05-10T13:23:10;0.20;;;0.20;;
30763;SDS011;17497;51.476;7.770;2023-05-10T13:25:37;0.30;;;0.30;;
30763;SDS011;17497;51.476;7.770;2023-05-10T13:28:04;0.30;;;0.30;;
30763;SDS011;17497;51.476;7.770;2023-05-10T13:30:30;0.20;;;0.20;;
30763;SDS011;17497;51.476;7.770;2023-05-10T13:32:57;0.23;;;0.23;;
30763;SDS011;17497;51.476;7.770;2023-05-10T13:35:27;0.20;;;0.20;;
30763;SDS011;17497;51.476;7.770;2023-05-10T13:37:53;0.30;;;0.30;;
30763;SDS011;17497;51.476;7.770;2023-05-10T13:40:22;0.30;;;0.30;;
30763;SDS011;17497;51.476;7.770;2023-05-10T13:42:49;0.30;;;0.30;;
30763;SDS011;17497;51.476;7.770;2023-05-10T13:45:16;0.20;;;0.20;;
30763;SDS011;17497;51.476;7.770;2023-05-10T13:47:43;0.30;;;0.30;;
30763;SDS011;17497;51.476;7.770;2023-05-10T13:50:12;0.30;;;0.30;;
30763;SDS011;17497;51.476;7.770;2023-05-10T13:52:41;0.20;;;0.20;;
30763;SDS011;17497;51.476;7.770;2023-05-10T13:55:08;0.30;;;0.30;;
30763;SDS011;17497;51.476;7.770;2023-05-10T13:57:35;0.30;;;0.30;;
30763;SDS011;17497;51.476;7.770;2023-05-10T14:00:05;0.30;;;0.30;;
30763;SDS011;17497;51.476;7.770;2023-05-10T14:02:35;0.30;;;0.30;;
30763;SDS011;17497;51.476;7.770;2023-05-10T14:05:04;0.20;;;0.20;;
30763;SDS011;17497;51.476;7.770;2023-05-10T14:07:31;0.30;;;0.30;;
30763;SDS011;17497;51.476;7.770;2023-05-10T14:09:58;0.30;;;0.30;;
30763;SDS011;17497;51.476;7.770;2023-05-10T14:12:25;0.20;;;0.20;;
30763;SDS011;17497;51.476;7.770;2023-05-10T14:14:52;0.30;;;0.30;;
30763;SDS011;17497;51.476;7.770;2023-05-10T14:17:18;0.30;;;0.30;;
30763;SDS011;17497;51.476;7.770;2023-05-10T14:19:45;0.28;;;0.28;;
30763;SDS011;17497;51.476;7.770;2023-05-10T14:22:12;0.30;;;0.30;;
30763;SDS011;17497;51.476;7.770;2023-05-10T14:24:38;0.30;;;0.30;;
30763;SDS011;17497;51.476;7.770;2023-05-10T14:27:05;0.30;;;0.30;;
30763;SDS011;17497;51.476;7.770;2023-05-10T14:29:32;0.30;;;0.30;;
30763;SDS011;17497;51.476;7.770;2023-05-10T14:31:59;0.30;;;0.30;;
30763;SDS011;17497;51.476;7.770;2023-05-10T14:34:25;0.23;;;0.23;;
30763;SDS011;17497;51.476;7.770;2023-05-10T14:36:52;0.20;;;0.20;;
30763;SDS011;17497;51.476;7.770;2023-05-10T14:39:19;0.20;;;0.20;;
30763;SDS011;17497;51.476;7.770;2023-05-10T14:41:46;0.20;;;0.20;;
30763;SDS011;17497;51.476;7.770;2023-05-10T14:44:13;0.30;;;0.30;;
30763;SDS011;17497;51.476;7.770;2023-05-10T14:46:41;0.22;;;0.22;;
30763;SDS011;17497;51.476;7.770;2023-05-10T14:49:08;0.20;;;0.20;;
30763;SDS011;17497;51.476;7.770;2023-05-10T14:51:34;0.30;;;0.30;;
30763;SDS011;17497;51.476;7.770;2023-05-10T14:54:02;0.28;;;0.28;;
30763;SDS011;17497;51.476;7.770;2023-05-10T14:56:29;0.28;;;0.28;;
30763;SDS011;17497;51.476;7.770;2023-05-10T14:58:56;0.22;;;0.22;;
30763;SDS011;17497;51.476;7.770;2023-05-10T15:01:23;0.28;;;0.28;;
30763;SDS011;17497;51.476;7.770;2023-05-10T15:03:51;0.25;;;0.25;;
30763;SDS011;17497;51.476;7.770;2023-05-10T15:06:22;0.30;;;0.30;;
30763;SDS011;17497;51.476;7.770;2023-05-10T15:08:50;0.28;;;0.28;;
30763;SDS011;17497;51.476;7.770;2023-05-10T15:11:17;0.20;;;0.20;;
30763;SDS011;17497;51.476;7.770;2023-05-10T15:13:44;0.30;;;0.30;;
30763;SDS011;17497;51.476;7.770;2023-05-10T15:16:11;0.30;;;0.30;;
30763;SDS011;17497;51.476;7.770;2023-05-10T15:18:38;0.28;;;0.28;;
30763;SDS011;17497;51.476;7.770;2023-05-10T15:21:04;0.30;;;0.30;;
30763;SDS011;17497;51.476;7.770;2023-05-10T15:23:31;0.20;;;0.20;;
30763;SDS011;17497;51.476;7.770;2023-05-10T15:25:58;0.20;;;0.20;;
30763;SDS011;17497;51.476;7.770;2023-05-10T15:28:24;0.20;;;0.20;;
30763;SDS011;17497;51.476;7.770;2023-05-10T15:30:51;0.25;;;0.25;;
30763;SDS011;17497;51.476;7.770;2023-05-10T15:33:18;0.20;;;0.20;;
30763;SDS011;17497;51.476;7.770;2023-05-10T15:41:07;0.30;;;0.30;;
30763;SDS011;17497;51.476;7.770;2023-05-10T15:43:35;0.20;;;0.20;;
30763;SDS011;17497;51.476;7.770;2023-05-10T15:46:01;0.30;;;0.30;;
30763;SDS011;17497;51.476;7.770;2023-05-10T15:48:31;0.30;;;0.30;;
30763;SDS011;17497;51.476;7.770;2023-05-10T15:51:06;0.30;;;0.30;;
30763;SDS011;17497;51.476;7.770;2023-05-10T15:53:41;0.30;;;0.30;;
30763;SDS011;17497;51.476;7.770;2023-05-10T15:56:25;0.30;;;0.30;;
30763;SDS011;17497;51.476;7.770;2023-05-10T15:58:52;0.30;;;0.30;;
30763;SDS011;17497;51.476;7.770;2023-05-10T16:01:25;0.20;;;0.20;;
30763;SDS011;17497;51.476;7.770;2023-05-10T16:03:52;0.30;;;0.30;;
30763;SDS011;17497;51.476;7.770;2023-05-10T16:06:27;0.30;;;0.30;;
30763;SDS011;17497;51.476;7.770;2023-05-10T16:08:57;0.20;;;0.20;;
30763;SDS011;17497;51.476;7.770;2023-05-10T16:11:24;0.30;;;0.30;;
30763;SDS011;17497;51.476;7.770;2023-05-10T16:13:54;0.30;;;0.30;;
30763;SDS011;17497;51.476;7.770;2023-05-10T16:16:21;0.20;;;0.20;;
30763;SDS011;17497;51.476;7.770;2023-05-10T16:18:49;0.20;;;0.20;;
30763;SDS011;17497;51.476;7.770;2023-05-10T16:21:17;0.20;;;0.20;;
30763;SDS011;17497;51.476;7.770;2023-05-10T16:23:44;0.20;;;0.20;;
30763;SDS011;17497;51.476;7.770;2023-05-10T16:26:11;0.30;;;0.30;;
30763;SDS011;17497;51.476;7.770;2023-05-10T16:28:38;0.30;;;0.30;;
30763;SDS011;17497;51.476;7.770;2023-05-10T16:31:06;0.30;;;0.30;;
30763;SDS011;17497;51.476;7.770;2023-05-10T16:33:33;0.20;;;0.20;;
30763;SDS011;17497;51.476;7.770;2023-05-10T16:35:59;0.20;;;0.20;;
30763;SDS011;17497;51.476;7.770;2023-05-10T16:38:26;0.22;;;0.22;;
30763;SDS011;17497;51.476;7.770;2023-05-10T16:40:52;0.30;;;0.30;;
30763;SDS011;17497;51.476;7.770;2023-05-10T16:43:20;0.30;;;0.30;;
30763;SDS011;17497;51.476;7.770;2023-05-10T16:45:59;0.20;;;0.20;;
30763;SDS011;17497;51.476;7.770;2023-05-10T16:48:26;0.20;;;0.20;;
30763;SDS011;17497;51.476;7.770;2023-05-10T16:50:53;0.20;;;0.20;;
30763;SDS011;17497;51.476;7.770;2023-05-10T16:53:19;0.30;;;0.30;;
30763;SDS011;17497;51.476;7.770;2023-05-10T16:55:46;0.20;;;0.20;;
30763;SDS011;17497;51.476;7.770;2023-05-10T16:58:13;0.20;;;0.20;;
30763;SDS011;17497;51.476;7.770;2023-05-10T17:00:40;0.30;;;0.30;;
30763;SDS011;17497;51.476;7.770;2023-05-10T17:03:07;0.30;;;0.30;;
30763;SDS011;17497;51.476;7.770;2023-05-10T17:05:33;0.30;;;0.30;;
30763;SDS011;17497;51.476;7.770;2023-05-10T17:08:00;0.30;;;0.30;;
30763;SDS011;17497;51.476;7.770;2023-05-10T17:10:27;0.20;;;0.20;;
30763;SDS011;17497;51.476;7.770;2023-05-10T17:12:54;0.20;;;0.20;;
30763;SDS011;17497;51.476;7.770;2023-05-10T17:15:20;0.30;;;0.30;;
30763;SDS011;17497;51.476;7.770;2023-05-10T17:17:49;0.30;;;0.30;;
30763;SDS011;17497;51.476;7.770;2023-05-10T17:20:15;0.20;;;0.20;;
30763;SDS011;17497;51.476;7.770;2023-05-10T17:22:42;0.30;;;0.30;;